Time;durP1;ratioP1;P1;durP2;ratioP2;P2;SDS_P1;SDS_P2;PMS_P1;PMS_P2;Temp;Humidity;BMP_temperature;BMP_pressure;BME280_temperature;BME280_humidity;BME280_pressure;Samples;Min_cycle;Max_cycle;Signal;HPM_P1;HPM_P2
2023/05/10 00:01:12;;;;;;;15.32;12.73;;;;;;;;;;5070224;28;20278;-64
2023/05/10 00:03:38;;;;;;;15.80;13.52;;;;;;;;;;5070353;28;20574;-65
2023/05/10 00:06:03;;;;;;;17.80;13.93;;;;;;;;;;5061623;28;20222;-64
2023/05/10 00:08:28;;;;;;;18.17;15.25;;;;;;;;;;5070336;28;20579;-64
2023/05/10 00:10:53;;;;;;;17.15;14.80;;;;;;;;;;5070015;28;20329;-65
2023/05/10 00:13:19;;;;;;;18.92;15.50;;;;;;;;;;5069057;28;20609;-64
2023/05/10 00:15:44;;;;;;;18.35;15.27;;;;;;;;;;5070182;28;20202;-65
2023/05/10 00:18:09;;;;;;;19.05;16.05;;;;;;;;;;5088954;28;20235;-65
2023/05/10 00:20:35;;;;;;;20.77;16.25;;;;;;;;;;5080319;28;20237;-64
2023/05/10 00:23:00;;;;;;;19.73;16.17;;;;;;;;;;5069199;28;20268;-62
2023/05/10 00:25:25;;;;;;;20.25;16.27;;;;;;;;;;5068987;28;20319;-65
2023/05/10 00:27:50;;;;;;;22.42;16.15;;;;;;;;;;5069409;28;20591;-65
2023/05/10 00:30:16;;;;;;;20.88;16.77;;;;;;;;;;5069008;28;20259;-65
2023/05/10 00:32:41;;;;;;;23.33;17.80;;;;;;;;;;5069193;28;20215;-65
2023/05/10 00:35:07;;;;;;;20.77;17.20;;;;;;;;;;5068612;28;20218;-64
2023/05/10 00:37:32;;;;;;;24.30;18.48;;;;;;;;;;5069493;28;20215;-65
2023/05/10 00:39:57;;;;;;;26.08;18.42;;;;;;;;;;5068912;28;20236;-65
2023/05/10 00:42:23;;;;;;;27.30;18.98;;;;;;;;;;5068482;28;20203;-64
2023/05/10 00:44:48;;;;;;;27.02;19.02;;;;;;;;;;5069483;28;20214;-65
2023/05/10 00:47:13;;;;;;;26.58;19.58;;;;;;;;;;5067420;28;20581;-65
2023/05/10 00:49:38;;;;;;;23.73;17.83;;;;;;;;;;5085062;28;20258;-65
2023/05/10 00:52:04;;;;;;;26.20;19.20;;;;;;;;;;5089082;28;20216;-64
2023/05/10 00:54:29;;;;;;;24.88;19.50;;;;;;;;;;5088720;28;20661;-64
2023/05/10 00:56:56;;;;;;;25.13;19.67;;;;;;;;;;5089193;28;20214;-65
2023/05/10 00:59:22;;;;;;;25.80;20.08;;;;;;;;;;5087440;28;20225;-65
2023/05/10 01:01:47;;;;;;;27.63;20.35;;;;;;;;;;5088613;28;20213;-65
2023/05/10 01:04:12;;;;;;;28.58;21.27;;;;;;;;;;5088951;28;20556;-65
2023/05/10 01:06:38;;;;;;;32.28;22.50;;;;;;;;;;5075841;28;20567;-64
2023/05/10 01:09:03;;;;;;;30.15;22.77;;;;;;;;;;5068907;28;20226;-64
2023/05/10 01:11:29;;;;;;;31.35;23.13;;;;;;;;;;5089092;28;20210;-65
2023/05/10 01:13:56;;;;;;;33.88;23.48;;;;;;;;;;5049032;28;1110837;-65
2023/05/10 01:16:21;;;;;;;38.28;25.08;;;;;;;;;;5083447;28;20219;-65
2023/05/10 01:18:46;;;;;;;39.55;26.10;;;;;;;;;;5068568;28;20217;-65
2023/05/10 01:21:27;;;;;;;35.13;24.27;;;;;;;;;;5068496;28;20222;-65
2023/05/10 01:23:53;;;;;;;36.45;25.42;;;;;;;;;;5069484;28;20704;-65
2023/05/10 01:26:26;;;;;;;36.47;25.55;;;;;;;;;;5069288;28;20215;-65
2023/05/10 01:28:59;;;;;;;40.45;26.08;;;;;;;;;;5069283;28;20214;-65
2023/05/10 01:31:30;;;;;;;38.28;25.90;;;;;;;;;;5068824;28;20215;-65
2023/05/10 01:33:58;;;;;;;39.05;26.52;;;;;;;;;;5069786;28;20581;-65
2023/05/10 01:36:35;;;;;;;40.03;26.90;;;;;;;;;;5068581;28;20637;-64
2023/05/10 01:39:10;;;;;;;39.88;26.83;;;;;;;;;;5067933;28;20639;-65
2023/05/10 01:41:43;;;;;;;43.42;28.88;;;;;;;;;;5067784;28;20601;-65
2023/05/10 01:44:26;;;;;;;47.40;30.00;;;;;;;;;;5067039;28;20221;-64
2023/05/10 01:46:53;;;;;;;44.17;29.65;;;;;;;;;;5069288;28;20238;-65
2023/05/10 01:49:22;;;;;;;48.28;31.88;;;;;;;;;;5067437;28;20233;-64
2023/05/10 01:51:48;;;;;;;50.85;31.75;;;;;;;;;;5067766;28;20617;-64
2023/05/10 01:54:14;;;;;;;46.38;30.92;;;;;;;;;;5068976;28;20199;-63
2023/05/10 01:56:40;;;;;;;55.88;34.13;;;;;;;;;;5069063;28;20739;-64
2023/05/10 01:59:06;;;;;;;51.20;32.70;;;;;;;;;;5077029;28;20692;-64
2023/05/10 02:01:31;;;;;;;50.95;32.00;;;;;;;;;;5092034;28;20213;-64
2023/05/10 02:03:56;;;;;;;48.08;31.17;;;;;;;;;;5091528;28;20275;-64
2023/05/10 02:06:21;;;;;;;51.22;33.42;;;;;;;;;;5081128;28;20675;-64
2023/05/10 02:08:47;;;;;;;52.50;33.95;;;;;;;;;;5072840;28;20206;-65
2023/05/10 02:11:13;;;;;;;54.55;35.22;;;;;;;;;;5090662;28;20256;-64
2023/05/10 02:13:39;;;;;;;57.25;34.85;;;;;;;;;;5091486;28;20228;-64
2023/05/10 02:16:04;;;;;;;56.35;35.40;;;;;;;;;;5087890;28;20210;-64
2023/05/10 02:18:30;;;;;;;55.00;35.58;;;;;;;;;;5072038;28;20548;-64
2023/05/10 02:20:55;;;;;;;59.03;37.72;;;;;;;;;;5070922;28;20743;-65
2023/05/10 02:23:20;;;;;;;52.78;36.38;;;;;;;;;;5070713;28;20198;-64
2023/05/10 02:25:46;;;;;;;57.72;38.42;;;;;;;;;;5070701;28;20228;-64
2023/05/10 02:28:11;;;;;;;57.95;38.40;;;;;;;;;;5070528;28;20210;-65
2023/05/10 02:30:36;;;;;;;56.42;38.50;;;;;;;;;;5067091;28;20242;-64
2023/05/10 02:33:02;;;;;;;61.17;39.47;;;;;;;;;;5080985;28;20609;-64
2023/05/10 02:35:28;;;;;;;59.30;39.38;;;;;;;;;;5068647;28;20218;-65
2023/05/10 02:37:53;;;;;;;53.78;37.42;;;;;;;;;;5062742;28;20214;-65
2023/05/10 02:40:18;;;;;;;58.92;38.58;;;;;;;;;;5079426;28;20230;-66
2023/05/10 02:42:43;;;;;;;60.30;39.42;;;;;;;;;;5081080;28;20236;-65
2023/05/10 02:45:11;;;;;;;56.40;37.47;;;;;;;;;;5078145;28;20205;-65
2023/05/10 02:47:37;;;;;;;62.83;39.97;;;;;;;;;;5065122;28;20207;-65
2023/05/10 02:50:02;;;;;;;53.10;37.03;;;;;;;;;;5054194;28;20214;-64
2023/05/10 02:52:29;;;;;;;53.97;38.00;;;;;;;;;;5057943;28;20297;-65
2023/05/10 02:54:55;;;;;;;52.35;35.97;;;;;;;;;;5062364;28;20264;-65
2023/05/10 02:57:23;;;;;;;52.70;35.47;;;;;;;;;;5061520;28;20207;-65
2023/05/10 02:59:48;;;;;;;57.90;37.75;;;;;;;;;;5065677;28;20383;-65
2023/05/10 03:02:13;;;;;;;57.78;37.55;;;;;;;;;;5061768;28;20233;-64
2023/05/10 03:04:39;;;;;;;60.85;38.40;;;;;;;;;;5070407;28;20229;-65
2023/05/10 03:07:04;;;;;;;63.05;38.85;;;;;;;;;;5063216;28;20872;-65
2023/05/10 03:09:30;;;;;;;62.15;38.50;;;;;;;;;;5068151;28;20490;-65
2023/05/10 03:11:56;;;;;;;48.95;34.00;;;;;;;;;;5068412;28;20537;-65
2023/05/10 03:14:24;;;;;;;59.67;37.28;;;;;;;;;;5070366;28;20210;-65
2023/05/10 03:17:00;;;;;;;44.55;31.58;;;;;;;;;;5061754;28;20213;-65
2023/05/10 03:19:30;;;;;;;49.35;32.30;;;;;;;;;;5076799;28;20581;-65
2023/05/10 03:21:56;;;;;;;58.10;35.80;;;;;;;;;;5059972;28;20958;-65
2023/05/10 03:24:21;;;;;;;48.08;32.08;;;;;;;;;;5061317;28;20206;-65
2023/05/10 03:26:47;;;;;;;56.50;36.22;;;;;;;;;;5061680;28;20214;-65
2023/05/10 03:29:12;;;;;;;53.13;34.55;;;;;;;;;;5060388;28;20203;-66
2023/05/10 03:31:38;;;;;;;47.85;32.40;;;;;;;;;;5054028;28;20348;-65
2023/05/10 03:34:03;;;;;;;55.55;36.47;;;;;;;;;;5053646;28;20210;-66
2023/05/10 03:36:29;;;;;;;58.00;36.58;;;;;;;;;;5053587;28;20240;-65
2023/05/10 03:38:54;;;;;;;56.40;35.90;;;;;;;;;;5070252;28;20206;-65
2023/05/10 03:41:20;;;;;;;55.65;35.85;;;;;;;;;;5080692;28;20218;-65
2023/05/10 03:43:45;;;;;;;55.33;34.83;;;;;;;;;;5080649;28;20216;-66
2023/05/10 03:46:10;;;;;;;58.03;36.50;;;;;;;;;;5080709;28;20226;-65
2023/05/10 03:48:36;;;;;;;54.17;35.25;;;;;;;;;;5081057;28;20676;-66
2023/05/10 03:51:01;;;;;;;57.40;38.15;;;;;;;;;;5080199;28;20213;-65
2023/05/10 03:53:27;;;;;;;60.97;39.00;;;;;;;;;;5076441;28;20205;-66
2023/05/10 03:55:52;;;;;;;56.25;36.78;;;;;;;;;;5073196;28;20673;-65
2023/05/10 03:58:18;;;;;;;59.50;37.97;;;;;;;;;;5072890;28;20248;-66
2023/05/10 04:00:45;;;;;;;55.38;35.97;;;;;;;;;;5078407;28;20481;-66
2023/05/10 04:03:10;;;;;;;58.80;38.92;;;;;;;;;;5082916;28;20256;-65
2023/05/10 04:05:35;;;;;;;59.65;38.58;;;;;;;;;;5081275;28;20222;-65
2023/05/10 04:08:01;;;;;;;57.25;37.00;;;;;;;;;;5070364;28;20727;-65
2023/05/10 04:10:26;;;;;;;62.78;39.83;;;;;;;;;;5082770;28;20206;-65
2023/05/10 04:12:51;;;;;;;64.55;39.78;;;;;;;;;;5090129;28;20287;-65
2023/05/10 04:15:17;;;;;;;57.88;37.60;;;;;;;;;;5090367;28;20309;-65
2023/05/10 04:17:42;;;;;;;57.67;38.47;;;;;;;;;;5073029;28;20210;-65
2023/05/10 04:20:08;;;;;;;57.00;37.15;;;;;;;;;;5069524;28;20592;-65
2023/05/10 04:22:33;;;;;;;65.82;39.78;;;;;;;;;;5089122;28;20206;-65
2023/05/10 04:24:58;;;;;;;56.83;37.20;;;;;;;;;;5071928;28;20218;-65
2023/05/10 04:27:23;;;;;;;54.00;35.63;;;;;;;;;;5060036;28;20210;-66
2023/05/10 04:29:49;;;;;;;57.67;36.60;;;;;;;;;;5075029;28;20220;-65
2023/05/10 04:32:16;;;;;;;55.25;37.50;;;;;;;;;;5079692;28;20263;-66
2023/05/10 04:34:41;;;;;;;63.90;38.25;;;;;;;;;;5080291;28;20209;-66
2023/05/10 04:37:07;;;;;;;58.72;36.15;;;;;;;;;;5075909;28;20210;-65
2023/05/10 04:39:32;;;;;;;56.67;36.88;;;;;;;;;;5058055;28;20215;-67
2023/05/10 04:41:58;;;;;;;57.38;35.85;;;;;;;;;;5053408;28;20592;-65
2023/05/10 04:44:23;;;;;;;61.88;37.55;;;;;;;;;;5056772;28;20214;-67
2023/05/10 04:46:48;;;;;;;53.08;34.83;;;;;;;;;;5059949;28;20283;-66
2023/05/10 04:49:14;;;;;;;50.92;33.90;;;;;;;;;;5059759;28;20203;-65
2023/05/10 04:51:39;;;;;;;60.78;37.55;;;;;;;;;;5078294;28;20205;-65
2023/05/10 04:54:04;;;;;;;56.40;35.28;;;;;;;;;;5079439;28;20205;-67
2023/05/10 04:56:30;;;;;;;55.70;36.50;;;;;;;;;;5080210;28;20213;-65
2023/05/10 04:58:55;;;;;;;57.60;35.28;;;;;;;;;;5078506;28;20689;-65
2023/05/10 05:01:20;;;;;;;61.30;37.13;;;;;;;;;;5071481;28;20222;-66
2023/05/10 05:03:46;;;;;;;60.13;36.72;;;;;;;;;;5072725;28;20220;-66
2023/05/10 05:06:11;;;;;;;53.17;33.45;;;;;;;;;;5066193;28;20612;-67
2023/05/10 05:08:36;;;;;;;55.78;35.47;;;;;;;;;;5080153;28;20642;-66
2023/05/10 05:11:01;;;;;;;54.58;34.67;;;;;;;;;;5060592;28;20239;-65
2023/05/10 05:13:27;;;;;;;59.53;36.47;;;;;;;;;;5079688;28;20236;-66
2023/05/10 05:15:53;;;;;;;62.17;36.50;;;;;;;;;;5076874;28;20217;-66
2023/05/10 05:18:18;;;;;;;54.38;34.10;;;;;;;;;;5079521;28;20218;-64
2023/05/10 05:20:43;;;;;;;65.70;39.95;;;;;;;;;;5069404;28;20793;-63
2023/05/10 05:23:09;;;;;;;57.63;33.90;;;;;;;;;;5053922;28;20229;-63
2023/05/10 05:25:34;;;;;;;64.30;35.30;;;;;;;;;;5052959;28;20666;-64
2023/05/10 05:27:59;;;;;;;54.90;32.88;;;;;;;;;;5052504;28;20305;-64
2023/05/10 05:30:25;;;;;;;58.05;34.75;;;;;;;;;;5058552;28;20544;-63
2023/05/10 05:32:50;;;;;;;65.28;35.83;;;;;;;;;;5060089;28;20211;-64
2023/05/10 05:35:15;;;;;;;54.08;33.25;;;;;;;;;;5061705;28;20213;-64
2023/05/10 05:37:41;;;;;;;59.50;33.80;;;;;;;;;;5063858;28;20284;-64
2023/05/10 05:40:06;;;;;;;55.15;33.72;;;;;;;;;;5063204;28;20297;-63
2023/05/10 05:42:31;;;;;;;61.00;34.25;;;;;;;;;;5063222;28;20222;-63
2023/05/10 05:44:57;;;;;;;51.88;32.22;;;;;;;;;;5060448;28;20233;-62
2023/05/10 05:47:22;;;;;;;50.58;30.55;;;;;;;;;;5075141;28;20279;-62
2023/05/10 05:49:47;;;;;;;60.28;32.97;;;;;;;;;;5075393;28;20408;-63
2023/05/10 05:52:13;;;;;;;55.75;33.67;;;;;;;;;;5079238;28;20664;-63
2023/05/10 05:54:38;;;;;;;54.58;33.40;;;;;;;;;;5083702;28;20775;-63
2023/05/10 05:57:03;;;;;;;60.38;33.33;;;;;;;;;;5082229;28;20209;-61
2023/05/10 05:59:29;;;;;;;55.70;31.13;;;;;;;;;;5083288;28;20891;-64
2023/05/10 06:01:54;;;;;;;58.03;33.45;;;;;;;;;;5083470;28;20217;-62
2023/05/10 06:04:21;;;;;;;53.72;32.60;;;;;;;;;;5079949;28;20493;-62
2023/05/10 06:06:46;;;;;;;58.40;33.50;;;;;;;;;;5065985;28;20214;-63
2023/05/10 06:09:11;;;;;;;56.55;32.08;;;;;;;;;;5055897;28;20256;-62
2023/05/10 06:11:36;;;;;;;55.45;31.58;;;;;;;;;;5055018;28;20306;-63
2023/05/10 06:14:04;;;;;;;49.97;30.23;;;;;;;;;;5056207;28;20245;-62
2023/05/10 06:16:29;;;;;;;54.33;32.45;;;;;;;;;;5062867;28;20225;-63
2023/05/10 06:18:55;;;;;;;53.30;31.98;;;;;;;;;;5063214;28;20210;-63
2023/05/10 06:21:20;;;;;;;55.38;33.58;;;;;;;;;;5062434;28;20605;-63
2023/05/10 06:23:45;;;;;;;50.08;30.63;;;;;;;;;;5062770;28;20206;-62
2023/05/10 06:26:11;;;;;;;45.40;28.88;;;;;;;;;;5062264;28;20665;-63
2023/05/10 06:28:38;;;;;;;49.10;29.58;;;;;;;;;;5063480;28;20284;-63
2023/05/10 06:31:03;;;;;;;51.03;31.33;;;;;;;;;;5074968;28;20206;-64
2023/05/10 06:33:29;;;;;;;52.67;31.25;;;;;;;;;;5074703;28;20206;-64
2023/05/10 06:35:54;;;;;;;52.30;30.13;;;;;;;;;;5075347;28;20242;-64
2023/05/10 06:38:19;;;;;;;49.25;29.80;;;;;;;;;;5076130;28;20228;-63
2023/05/10 06:40:44;;;;;;;50.17;30.40;;;;;;;;;;5062567;28;20226;-63
2023/05/10 06:43:10;;;;;;;50.05;29.23;;;;;;;;;;5062106;28;20685;-65
2023/05/10 06:45:35;;;;;;;49.10;29.33;;;;;;;;;;5064730;28;20303;-66
2023/05/10 06:48:00;;;;;;;51.78;29.17;;;;;;;;;;5081731;28;20214;-64
2023/05/10 06:50:26;;;;;;;46.75;28.15;;;;;;;;;;5082554;28;20613;-67
2023/05/10 06:52:51;;;;;;;52.83;29.05;;;;;;;;;;5077177;28;20843;-65
2023/05/10 06:55:17;;;;;;;49.30;28.65;;;;;;;;;;5074491;28;20671;-66
2023/05/10 06:57:42;;;;;;;48.45;27.90;;;;;;;;;;5074228;28;20296;-66
2023/05/10 07:00:09;;;;;;;52.20;29.08;;;;;;;;;;5078202;28;20321;-66
2023/05/10 07:02:34;;;;;;;51.05;29.30;;;;;;;;;;5084006;28;20237;-66
2023/05/10 07:05:00;;;;;;;49.85;28.67;;;;;;;;;;5071882;28;20573;-68
2023/05/10 07:07:25;;;;;;;55.63;29.60;;;;;;;;;;5070365;28;20211;-66
2023/05/10 07:09:51;;;;;;;56.67;30.27;;;;;;;;;;5079442;28;20264;-66
2023/05/10 07:12:16;;;;;;;52.83;30.08;;;;;;;;;;5091008;28;20286;-67
2023/05/10 07:14:41;;;;;;;59.88;31.42;;;;;;;;;;5079312;28;20226;-66
2023/05/10 07:17:06;;;;;;;51.28;30.50;;;;;;;;;;5082855;28;20210;-65
2023/05/10 07:19:32;;;;;;;52.38;29.98;;;;;;;;;;5091541;28;20355;-67
2023/05/10 07:21:57;;;;;;;50.28;30.95;;;;;;;;;;5070538;28;20221;-66
2023/05/10 07:24:23;;;;;;;54.60;32.25;;;;;;;;;;5071027;28;20571;-66
2023/05/10 07:26:48;;;;;;;54.67;32.70;;;;;;;;;;5070864;28;20214;-68
2023/05/10 07:29:13;;;;;;;57.05;32.90;;;;;;;;;;5070556;28;20203;-70
2023/05/10 07:31:41;;;;;;;54.83;33.40;;;;;;;;;;5071132;28;20248;-72
2023/05/10 07:34:06;;;;;;;56.17;32.55;;;;;;;;;;5070401;28;20284;-69
2023/05/10 07:36:32;;;;;;;56.67;34.85;;;;;;;;;;5071009;28;20218;-67
2023/05/10 07:38:57;;;;;;;52.78;32.70;;;;;;;;;;5079030;28;20241;-68
2023/05/10 07:41:22;;;;;;;57.60;34.78;;;;;;;;;;5090570;28;20569;-68
2023/05/10 07:43:48;;;;;;;63.95;35.45;;;;;;;;;;5090885;28;20604;-67
2023/05/10 07:46:13;;;;;;;52.63;33.35;;;;;;;;;;5090753;28;20209;-67
2023/05/10 07:48:38;;;;;;;57.10;33.05;;;;;;;;;;5090490;28;20545;-68
2023/05/10 07:51:04;;;;;;;55.97;33.78;;;;;;;;;;5090544;28;20221;-69
2023/05/10 07:53:29;;;;;;;54.58;33.33;;;;;;;;;;5086167;28;20336;-69
2023/05/10 07:55:55;;;;;;;58.70;33.85;;;;;;;;;;5069217;28;20269;-66
2023/05/10 07:58:21;;;;;;;56.05;33.40;;;;;;;;;;5078034;28;20700;-68
2023/05/10 08:00:46;;;;;;;56.92;32.65;;;;;;;;;;5089943;28;20224;-67
2023/05/10 08:03:11;;;;;;;51.63;31.98;;;;;;;;;;5074412;28;20199;-68
2023/05/10 08:05:36;;;;;;;55.70;33.00;;;;;;;;;;5076409;28;20213;-68
2023/05/10 08:08:02;;;;;;;49.83;31.30;;;;;;;;;;5088156;28;20289;-70
2023/05/10 08:10:27;;;;;;;47.28;30.95;;;;;;;;;;5064212;28;20214;-71
2023/05/10 08:12:52;;;;;;;50.20;32.17;;;;;;;;;;5071742;28;20717;-69
2023/05/10 08:15:18;;;;;;;46.88;29.60;;;;;;;;;;5070123;28;20237;-69
2023/05/10 08:17:43;;;;;;;45.28;28.67;;;;;;;;;;5086374;28;20638;-69
2023/05/10 08:20:08;;;;;;;40.85;27.52;;;;;;;;;;5090159;28;20230;-69
2023/05/10 08:22:34;;;;;;;42.95;26.88;;;;;;;;;;5090461;28;20206;-71
2023/05/10 08:24:59;;;;;;;40.67;25.30;;;;;;;;;;5089801;28;20221;-70
2023/05/10 08:27:24;;;;;;;36.95;23.17;;;;;;;;;;5089854;28;20559;-70
2023/05/10 08:29:50;;;;;;;39.42;25.15;;;;;;;;;;5090546;28;20218;-69
2023/05/10 08:32:15;;;;;;;35.53;23.25;;;;;;;;;;5089374;28;20700;-69
2023/05/10 08:34:40;;;;;;;37.50;23.70;;;;;;;;;;5090200;28;20684;-68
2023/05/10 08:37:05;;;;;;;38.38;22.75;;;;;;;;;;5089465;28;20214;-69
2023/05/10 08:39:34;;;;;;;36.42;23.40;;;;;;;;;;5090021;28;20681;-69
2023/05/10 08:41:59;;;;;;;40.47;24.08;;;;;;;;;;5090087;28;20359;-70
2023/05/10 08:44:25;;;;;;;39.80;24.98;;;;;;;;;;5089596;28;20316;-69
2023/05/10 08:46:50;;;;;;;36.50;22.52;;;;;;;;;;5089931;28;20224;-68
2023/05/10 08:49:18;;;;;;;32.97;20.70;;;;;;;;;;5089746;28;20217;-70
2023/05/10 08:51:43;;;;;;;36.60;22.20;;;;;;;;;;5089731;28;20205;-69
2023/05/10 08:54:09;;;;;;;39.80;24.05;;;;;;;;;;5088152;28;20359;-70
2023/05/10 08:56:34;;;;;;;38.45;25.17;;;;;;;;;;5088595;28;20308;-69
2023/05/10 08:58:59;;;;;;;35.40;22.33;;;;;;;;;;5089558;28;20271;-70
2023/05/10 09:01:24;;;;;;;39.55;26.05;;;;;;;;;;5088361;28;20661;-69
2023/05/10 09:03:50;;;;;;;37.70;25.08;;;;;;;;;;5090137;28;20209;-69
2023/05/10 09:06:15;;;;;;;41.65;25.85;;;;;;;;;;5077396;28;20756;-67
2023/05/10 09:08:41;;;;;;;44.55;26.15;;;;;;;;;;5070040;28;20221;-70
2023/05/10 09:11:06;;;;;;;38.60;23.75;;;;;;;;;;5083489;28;20218;-70
2023/05/10 09:13:32;;;;;;;36.97;22.55;;;;;;;;;;5081133;28;20221;-70
2023/05/10 09:15:57;;;;;;;32.55;20.25;;;;;;;;;;5090385;28;20225;-71
2023/05/10 09:18:22;;;;;;;30.65;19.20;;;;;;;;;;5068152;28;20198;-70
2023/05/10 09:20:48;;;;;;;28.15;18.33;;;;;;;;;;5072811;28;20248;-70
2023/05/10 09:23:13;;;;;;;28.52;18.73;;;;;;;;;;5073256;28;20621;-71
2023/05/10 09:25:38;;;;;;;27.98;17.45;;;;;;;;;;5073535;28;20604;-72
2023/05/10 09:28:05;;;;;;;27.38;18.50;;;;;;;;;;5070888;28;20217;-72
2023/05/10 09:30:31;;;;;;;28.48;19.35;;;;;;;;;;5073476;28;20232;-71
2023/05/10 09:32:57;;;;;;;26.23;16.80;;;;;;;;;;5073563;28;20214;-70
2023/05/10 09:35:23;;;;;;;27.77;18.13;;;;;;;;;;5072165;28;20297;-73
2023/05/10 09:37:49;;;;;;;27.85;18.40;;;;;;;;;;5073701;28;20206;-70
2023/05/10 09:40:16;;;;;;;25.48;16.80;;;;;;;;;;5072790;28;20705;-71
2023/05/10 09:42:42;;;;;;;25.40;15.65;;;;;;;;;;5087622;28;20327;-70
2023/05/10 09:45:07;;;;;;;20.30;13.68;;;;;;;;;;5093110;28;20513;-71
2023/05/10 09:47:34;;;;;;;21.88;13.77;;;;;;;;;;5092969;28;20546;-69
2023/05/10 09:50:06;;;;;;;20.30;13.20;;;;;;;;;;5093124;28;20655;-70
2023/05/10 09:52:32;;;;;;;16.75;11.85;;;;;;;;;;5091882;28;20258;-67
2023/05/10 09:54:57;;;;;;;19.70;11.07;;;;;;;;;;5091333;28;20221;-68
2023/05/10 09:57:22;;;;;;;12.30;9.07;;;;;;;;;;5092448;28;20245;-67
2023/05/10 09:59:48;;;;;;;14.27;8.68;;;;;;;;;;5093130;28;20243;-68
2023/05/10 10:02:13;;;;;;;14.27;8.55;;;;;;;;;;5091923;28;20213;-67
2023/05/10 10:04:39;;;;;;;12.18;8.73;;;;;;;;;;5093174;28;20221;-67
2023/05/10 10:07:04;;;;;;;11.25;8.15;;;;;;;;;;5075547;28;20215;-68
2023/05/10 10:09:30;;;;;;;10.90;7.05;;;;;;;;;;5076602;28;20209;-67
2023/05/10 10:11:55;;;;;;;13.02;7.63;;;;;;;;;;5088139;28;20202;-67
2023/05/10 10:14:21;;;;;;;10.88;7.82;;;;;;;;;;5072338;28;20214;-67
2023/05/10 10:16:46;;;;;;;11.68;8.40;;;;;;;;;;5071972;28;20203;-69
2023/05/10 10:19:12;;;;;;;10.90;7.85;;;;;;;;;;5072016;28;20249;-68
2023/05/10 10:21:37;;;;;;;12.45;8.70;;;;;;;;;;5072453;28;20210;-68
2023/05/10 10:24:05;;;;;;;13.40;8.65;;;;;;;;;;5070084;28;20252;-67
2023/05/10 10:26:30;;;;;;;11.98;8.27;;;;;;;;;;5072191;28;20213;-68
2023/05/10 10:29:05;;;;;;;11.50;8.85;;;;;;;;;;5071383;28;20210;-67
2023/05/10 10:31:30;;;;;;;11.52;8.48;;;;;;;;;;5078202;28;20224;-66
2023/05/10 10:33:56;;;;;;;12.77;7.68;;;;;;;;;;5092714;28;20210;-67
2023/05/10 10:36:22;;;;;;;11.45;8.65;;;;;;;;;;5090800;28;20221;-67
2023/05/10 10:38:47;;;;;;;12.48;9.02;;;;;;;;;;5091915;28;20308;-66
2023/05/10 10:41:30;;;;;;;13.63;10.07;;;;;;;;;;5091419;28;20229;-69
2023/05/10 10:44:13;;;;;;;12.80;9.43;;;;;;;;;;5092337;28;20270;-67
2023/05/10 10:46:57;;;;;;;12.20;9.27;;;;;;;;;;5091930;28;20205;-67
2023/05/10 10:49:22;;;;;;;13.18;9.38;;;;;;;;;;5091972;28;20214;-66
2023/05/10 10:52:06;;;;;;;12.90;9.25;;;;;;;;;;5091314;28;20197;-66
2023/05/10 10:54:32;;;;;;;13.90;9.05;;;;;;;;;;5092022;28;20250;-68
2023/05/10 10:57:12;;;;;;;12.68;8.60;;;;;;;;;;5091771;28;20295;-67
2023/05/10 10:59:41;;;;;;;12.32;9.02;;;;;;;;;;5091188;28;20251;-67
2023/05/10 11:02:06;;;;;;;12.32;8.77;;;;;;;;;;5091420;28;20221;-66
2023/05/10 11:04:40;;;;;;;12.57;9.13;;;;;;;;;;5092215;28;20201;-68
2023/05/10 11:07:16;;;;;;;14.77;8.77;;;;;;;;;;5073594;28;20206;-65
2023/05/10 11:09:41;;;;;;;11.73;8.05;;;;;;;;;;5078175;28;20268;-67
2023/05/10 11:12:08;;;;;;;11.82;8.13;;;;;;;;;;5085528;28;20250;-68
2023/05/10 11:14:33;;;;;;;12.00;8.15;;;;;;;;;;5070049;28;20210;-68
2023/05/10 11:16:58;;;;;;;11.30;7.93;;;;;;;;;;5070154;28;20226;-66
2023/05/10 11:19:24;;;;;;;11.48;7.95;;;;;;;;;;5070304;28;20217;-67
2023/05/10 11:21:50;;;;;;;11.25;7.97;;;;;;;;;;5070084;28;20215;-66
2023/05/10 11:24:17;;;;;;;12.50;7.82;;;;;;;;;;5070987;28;20211;-66
2023/05/10 11:26:42;;;;;;;12.45;7.47;;;;;;;;;;5070157;28;20203;-67
2023/05/10 11:29:07;;;;;;;11.02;7.55;;;;;;;;;;5076887;28;20259;-66
2023/05/10 11:31:33;;;;;;;10.90;7.95;;;;;;;;;;5087677;28;20556;-67
2023/05/10 11:33:58;;;;;;;11.32;8.00;;;;;;;;;;5090871;28;20214;-66
2023/05/10 11:36:25;;;;;;;13.18;8.23;;;;;;;;;;5091830;28;20201;-66
2023/05/10 11:38:51;;;;;;;13.50;8.10;;;;;;;;;;5090219;28;20206;-66
2023/05/10 11:41:16;;;;;;;11.07;7.57;;;;;;;;;;5088978;28;20226;-67
2023/05/10 11:43:42;;;;;;;11.60;7.75;;;;;;;;;;5091320;28;20664;-68
2023/05/10 11:46:07;;;;;;;10.85;7.47;;;;;;;;;;5088636;28;20668;-68
2023/05/10 11:48:33;;;;;;;11.57;7.32;;;;;;;;;;5089883;28;20214;-67
2023/05/10 11:50:58;;;;;;;11.43;7.32;;;;;;;;;;5091068;28;20209;-65
2023/05/10 11:53:25;;;;;;;9.68;6.47;;;;;;;;;;5090648;28;20710;-65
2023/05/10 11:55:51;;;;;;;9.77;7.18;;;;;;;;;;5090110;28;20214;-65
2023/05/10 11:58:17;;;;;;;12.10;7.32;;;;;;;;;;5090442;28;20730;-65
2023/05/10 12:00:42;;;;;;;11.07;6.85;;;;;;;;;;5084843;28;20226;-65
2023/05/10 12:03:08;;;;;;;10.00;6.20;;;;;;;;;;5068233;28;20198;-65
2023/05/10 12:05:33;;;;;;;9.52;6.18;;;;;;;;;;5069371;28;20572;-66
2023/05/10 12:08:12;;;;;;;9.30;6.32;;;;;;;;;;5068908;28;20749;-67
2023/05/10 12:10:37;;;;;;;9.32;5.45;;;;;;;;;;5083567;28;20214;-66
2023/05/10 12:13:03;;;;;;;9.88;6.45;;;;;;;;;;5076943;28;20678;-64
2023/05/10 12:15:28;;;;;;;10.15;6.65;;;;;;;;;;5069947;28;20206;-65
2023/05/10 12:17:53;;;;;;;11.00;6.28;;;;;;;;;;5070520;28;20203;-65
2023/05/10 12:20:19;;;;;;;12.60;6.88;;;;;;;;;;5069915;28;20799;-66
2023/05/10 12:22:46;;;;;;;14.25;7.05;;;;;;;;;;5069480;28;20305;-65
2023/05/10 12:25:11;;;;;;;10.82;7.30;;;;;;;;;;5069733;28;20215;-69
2023/05/10 12:27:36;;;;;;;11.45;7.20;;;;;;;;;;5070339;28;20673;-69
2023/05/10 12:30:02;;;;;;;10.23;6.90;;;;;;;;;;5069011;28;20222;-64
2023/05/10 12:32:38;;;;;;;11.35;7.70;;;;;;;;;;5070329;28;20589;-66
2023/05/10 12:35:04;;;;;;;12.05;7.80;;;;;;;;;;5070051;28;20210;-65
2023/05/10 12:37:29;;;;;;;10.13;7.20;;;;;;;;;;5069534;28;20702;-65
2023/05/10 12:39:54;;;;;;;10.45;7.22;;;;;;;;;;5069673;28;20210;-66
2023/05/10 12:42:20;;;;;;;11.50;7.40;;;;;;;;;;5069680;28;20295;-65
2023/05/10 12:44:45;;;;;;;11.15;7.47;;;;;;;;;;5067998;28;20223;-65
2023/05/10 12:47:11;;;;;;;12.57;7.55;;;;;;;;;;5069722;28;20210;-64
2023/05/10 12:49:36;;;;;;;9.85;6.70;;;;;;;;;;5070231;28;20214;-65
2023/05/10 12:52:01;;;;;;;10.05;6.57;;;;;;;;;;5068869;28;20210;-64
2023/05/10 12:54:27;;;;;;;11.98;6.55;;;;;;;;;;5069756;28;20206;-66
2023/05/10 12:56:52;;;;;;;6.75;5.60;;;;;;;;;;5069700;28;20682;-65
2023/05/10 12:59:18;;;;;;;10.40;6.13;;;;;;;;;;5068542;28;20217;-65
2023/05/10 13:01:43;;;;;;;9.07;6.18;;;;;;;;;;5069844;28;20217;-65
2023/05/10 13:04:08;;;;;;;9.07;6.45;;;;;;;;;;5069567;28;20804;-64
2023/05/10 13:06:34;;;;;;;9.20;5.95;;;;;;;;;;5082088;28;20209;-66
2023/05/10 13:09:00;;;;;;;8.60;5.30;;;;;;;;;;5089598;28;20602;-65
2023/05/10 13:11:25;;;;;;;9.75;5.80;;;;;;;;;;5068724;28;20203;-65
2023/05/10 13:13:50;;;;;;;8.13;4.95;;;;;;;;;;5076252;28;20226;-66
2023/05/10 13:16:16;;;;;;;7.78;4.90;;;;;;;;;;5066795;28;20207;-65
2023/05/10 13:18:41;;;;;;;9.38;5.05;;;;;;;;;;5069252;28;20245;-65
2023/05/10 13:21:07;;;;;;;7.57;4.97;;;;;;;;;;5069371;28;20227;-64
2023/05/10 13:23:33;;;;;;;7.95;5.32;;;;;;;;;;5069774;28;20684;-67
2023/05/10 13:25:58;;;;;;;7.78;4.93;;;;;;;;;;5068648;28;20271;-66
2023/05/10 13:28:26;;;;;;;7.80;5.72;;;;;;;;;;5069389;28;20311;-65
2023/05/10 13:30:51;;;;;;;11.27;5.35;;;;;;;;;;5069572;28;20237;-66
2023/05/10 13:33:16;;;;;;;8.43;5.30;;;;;;;;;;5068224;28;20218;-66
2023/05/10 13:35:41;;;;;;;6.80;5.00;;;;;;;;;;5069370;28;20207;-67
2023/05/10 13:38:07;;;;;;;9.27;5.07;;;;;;;;;;5067850;28;20215;-66
2023/05/10 13:40:33;;;;;;;8.45;5.50;;;;;;;;;;5067481;28;20244;-66
2023/05/10 13:42:58;;;;;;;9.82;5.57;;;;;;;;;;5089827;28;20214;-66
2023/05/10 13:45:23;;;;;;;10.75;5.57;;;;;;;;;;5089325;28;20410;-67
2023/05/10 13:47:49;;;;;;;9.73;4.90;;;;;;;;;;5089189;28;20214;-67
2023/05/10 13:50:14;;;;;;;8.77;5.35;;;;;;;;;;5089233;28;20210;-65
2023/05/10 13:52:39;;;;;;;7.90;5.43;;;;;;;;;;5089738;28;20239;-64
2023/05/10 13:55:05;;;;;;;10.90;5.50;;;;;;;;;;5087504;28;20229;-65
2023/05/10 13:57:30;;;;;;;8.35;4.90;;;;;;;;;;5083340;28;20214;-65
2023/05/10 13:59:57;;;;;;;7.22;4.70;;;;;;;;;;5069997;28;20721;-66
2023/05/10 14:02:22;;;;;;;8.80;4.72;;;;;;;;;;5078043;28;20297;-66
2023/05/10 14:04:48;;;;;;;9.57;4.97;;;;;;;;;;5082290;28;20283;-66
2023/05/10 14:07:13;;;;;;;9.30;4.28;;;;;;;;;;5082409;28;20294;-66
2023/05/10 14:09:38;;;;;;;6.25;4.07;;;;;;;;;;5080598;28;20217;-67
2023/05/10 14:12:04;;;;;;;10.35;4.90;;;;;;;;;;5066664;28;20242;-67
2023/05/10 14:14:29;;;;;;;8.93;5.55;;;;;;;;;;5073055;28;20720;-66